sensor_id;sensor_type;location;lat;lon;timestamp;temperature;humidity
24338;DHT22;12457;50.832;4.346;2023-04-06T00:02:06;9.30;99.90
24338;DHT22;12457;50.832;4.346;2023-04-06T00:04:31;9.20;1.00
24338;DHT22;12457;50.832;4.346;2023-04-06T00:06:57;9.20;1.00
24338;DHT22;12457;50.832;4.346;2023-04-06T00:09:23;9.30;1.00
24338;DHT22;12457;50.832;4.346;2023-04-06T00:11:49;9.20;1.00
24338;DHT22;12457;50.832;4.346;2023-04-06T00:14:15;9.20;1.00
24338;DHT22;12457;50.832;4.346;2023-04-06T00:16:43;9.30;1.00
24338;DHT22;12457;50.832;4.346;2023-04-06T00:19:09;9.30;1.00
24338;DHT22;12457;50.832;4.346;2023-04-06T00:21:35;9.30;1.00
24338;DHT22;12457;50.832;4.346;2023-04-06T00:24:02;9.30;1.00
24338;DHT22;12457;50.832;4.346;2023-04-06T00:26:29;9.30;1.00
24338;DHT22;12457;50.832;4.346;2023-04-06T00:28:55;9.30;1.00
24338;DHT22;12457;50.832;4.346;2023-04-06T00:34:43;9.30;1.00
24338;DHT22;12457;50.832;4.346;2023-04-06T00:37:09;9.30;1.00
24338;DHT22;12457;50.832;4.346;2023-04-06T00:39:35;9.40;1.00
24338;DHT22;12457;50.832;4.346;2023-04-06T00:42:10;9.40;1.00
24338;DHT22;12457;50.832;4.346;2023-04-06T00:44:38;9.30;1.00
24338;DHT22;12457;50.832;4.346;2023-04-06T00:47:04;9.30;1.00
24338;DHT22;12457;50.832;4.346;2023-04-06T00:49:29;9.30;1.00
24338;DHT22;12457;50.832;4.346;2023-04-06T00:51:55;9.30;1.00
24338;DHT22;12457;50.832;4.346;2023-04-06T00:54:21;9.40;1.00
24338;DHT22;12457;50.832;4.346;2023-04-06T00:56:47;9.40;1.00
24338;DHT22;12457;50.832;4.346;2023-04-06T00:59:12;9.40;1.00
24338;DHT22;12457;50.832;4.346;2023-04-06T01:01:38;9.30;1.00
24338;DHT22;12457;50.832;4.346;2023-04-06T01:04:04;9.30;1.00
24338;DHT22;12457;50.832;4.346;2023-04-06T01:06:29;9.20;1.00
24338;DHT22;12457;50.832;4.346;2023-04-06T01:08:55;9.20;28.00
24338;DHT22;12457;50.832;4.346;2023-04-06T01:11:21;9.20;62.20
24338;DHT22;12457;50.832;4.346;2023-04-06T01:13:47;9.20;99.90
24338;DHT22;12457;50.832;4.346;2023-04-06T01:16:13;9.20;99.90
24338;DHT22;12457;50.832;4.346;2023-04-06T01:18:38;9.20;99.90
24338;DHT22;12457;50.832;4.346;2023-04-06T01:21:04;9.20;99.90
24338;DHT22;12457;50.832;4.346;2023-04-06T01:23:30;9.30;99.90
24338;DHT22;12457;50.832;4.346;2023-04-06T01:25:56;9.20;99.90
24338;DHT22;12457;50.832;4.346;2023-04-06T01:28:22;9.10;99.90
24338;DHT22;12457;50.832;4.346;2023-04-06T01:30:53;9.00;99.90
24338;DHT22;12457;50.832;4.346;2023-04-06T01:33:18;8.90;99.90
24338;DHT22;12457;50.832;4.346;2023-04-06T01:35:44;8.90;99.90
24338;DHT22;12457;50.832;4.346;2023-04-06T01:38:10;8.90;99.90
24338;DHT22;12457;50.832;4.346;2023-04-06T01:40:35;8.80;99.90
24338;DHT22;12457;50.832;4.346;2023-04-06T01:43:01;8.70;99.90
24338;DHT22;12457;50.832;4.346;2023-04-06T01:45:27;8.70;99.90
24338;DHT22;12457;50.832;4.346;2023-04-06T01:47:53;8.60;99.90
24338;DHT22;12457;50.832;4.346;2023-04-06T01:50:18;8.60;99.90
24338;DHT22;12457;50.832;4.346;2023-04-06T01:52:45;8.60;99.90
24338;DHT22;12457;50.832;4.346;2023-04-06T01:55:10;8.60;99.90
24338;DHT22;12457;50.832;4.346;2023-04-06T01:57:36;8.60;99.90
24338;DHT22;12457;50.832;4.346;2023-04-06T02:00:02;8.50;99.90
24338;DHT22;12457;50.832;4.346;2023-04-06T02:02:28;8.50;99.90
24338;DHT22;12457;50.832;4.346;2023-04-06T02:04:54;8.50;99.90
24338;DHT22;12457;50.832;4.346;2023-04-06T02:07:21;8.50;99.90
24338;DHT22;12457;50.832;4.346;2023-04-06T02:09:47;8.50;99.90
24338;DHT22;12457;50.832;4.346;2023-04-06T02:12:13;8.40;99.90
24338;DHT22;12457;50.832;4.346;2023-04-06T02:14:39;8.40;99.90
24338;DHT22;12457;50.832;4.346;2023-04-06T02:17:36;8.40;99.90
24338;DHT22;12457;50.832;4.346;2023-04-06T02:20:02;8.40;99.90
24338;DHT22;12457;50.832;4.346;2023-04-06T02:22:27;8.50;99.90
24338;DHT22;12457;50.832;4.346;2023-04-06T02:24:53;8.50;99.90
24338;DHT22;12457;50.832;4.346;2023-04-06T02:27:18;8.40;99.90
24338;DHT22;12457;50.832;4.346;2023-04-06T02:29:44;8.40;99.90
24338;DHT22;12457;50.832;4.346;2023-04-06T02:32:10;8.40;99.90
24338;DHT22;12457;50.832;4.346;2023-04-06T02:34:36;8.40;99.90
24338;DHT22;12457;50.832;4.346;2023-04-06T02:37:03;8.40;99.90
24338;DHT22;12457;50.832;4.346;2023-04-06T02:39:28;8.40;99.90
24338;DHT22;12457;50.832;4.346;2023-04-06T02:41:54;8.30;99.90
24338;DHT22;12457;50.832;4.346;2023-04-06T02:44:21;8.20;1.00
24338;DHT22;12457;50.832;4.346;2023-04-06T02:46:49;8.20;1.00
24338;DHT22;12457;50.832;4.346;2023-04-06T02:49:16;8.30;1.00
24338;DHT22;12457;50.832;4.346;2023-04-06T02:51:41;8.30;99.90
24338;DHT22;12457;50.832;4.346;2023-04-06T02:54:07;8.30;99.90
24338;DHT22;12457;50.832;4.346;2023-04-06T02:56:33;8.30;1.00
24338;DHT22;12457;50.832;4.346;2023-04-06T02:58:58;8.30;1.00
24338;DHT22;12457;50.832;4.346;2023-04-06T03:01:25;8.30;1.00
24338;DHT22;12457;50.832;4.346;2023-04-06T03:03:51;8.30;1.00
24338;DHT22;12457;50.832;4.346;2023-04-06T03:06:16;8.30;1.00
24338;DHT22;12457;50.832;4.346;2023-04-06T03:08:43;8.30;1.00
24338;DHT22;12457;50.832;4.346;2023-04-06T03:11:09;8.20;1.00
24338;DHT22;12457;50.832;4.346;2023-04-06T03:13:37;8.20;1.00
24338;DHT22;12457;50.832;4.346;2023-04-06T03:16:16;8.20;1.00
24338;DHT22;12457;50.832;4.346;2023-04-06T03:18:41;8.10;1.00
24338;DHT22;12457;50.832;4.346;2023-04-06T03:21:07;8.20;1.00
24338;DHT22;12457;50.832;4.346;2023-04-06T03:23:32;8.20;1.00
24338;DHT22;12457;50.832;4.346;2023-04-06T03:25:58;8.20;1.00
24338;DHT22;12457;50.832;4.346;2023-04-06T03:28:24;8.10;1.00
24338;DHT22;12457;50.832;4.346;2023-04-06T03:30:49;8.10;1.00
24338;DHT22;12457;50.832;4.346;2023-04-06T03:33:15;8.00;1.00
24338;DHT22;12457;50.832;4.346;2023-04-06T03:35:41;8.20;1.00
24338;DHT22;12457;50.832;4.346;2023-04-06T03:38:06;8.10;1.00
24338;DHT22;12457;50.832;4.346;2023-04-06T03:40:32;8.00;1.00
24338;DHT22;12457;50.832;4.346;2023-04-06T03:42:58;8.00;1.00
24338;DHT22;12457;50.832;4.346;2023-04-06T03:45:23;8.00;1.00
24338;DHT22;12457;50.832;4.346;2023-04-06T03:47:49;8.00;1.00
24338;DHT22;12457;50.832;4.346;2023-04-06T03:50:15;8.00;1.00
24338;DHT22;12457;50.832;4.346;2023-04-06T03:52:41;8.20;1.00
24338;DHT22;12457;50.832;4.346;2023-04-06T03:55:07;8.20;1.00
24338;DHT22;12457;50.832;4.346;2023-04-06T03:57:33;8.30;1.00
24338;DHT22;12457;50.832;4.346;2023-04-06T03:59:59;8.30;1.00
24338;DHT22;12457;50.832;4.346;2023-04-06T04:03:03;8.30;1.00
24338;DHT22;12457;50.832;4.346;2023-04-06T04:05:29;8.40;1.00
24338;DHT22;12457;50.832;4.346;2023-04-06T04:07:55;8.50;99.90
24338;DHT22;12457;50.832;4.346;2023-04-06T04:10:21;8.50;1.00
24338;DHT22;12457;50.832;4.346;2023-04-06T04:12:46;8.50;1.00
24338;DHT22;12457;50.832;4.346;2023-04-06T04:15:12;8.60;1.00
24338;DHT22;12457;50.832;4.346;2023-04-06T04:17:43;8.60;1.00
24338;DHT22;12457;50.832;4.346;2023-04-06T04:20:12;8.50;1.00
24338;DHT22;12457;50.832;4.346;2023-04-06T04:22:38;8.50;1.00
24338;DHT22;12457;50.832;4.346;2023-04-06T04:25:04;8.50;1.00
24338;DHT22;12457;50.832;4.346;2023-04-06T04:27:30;8.60;1.00
24338;DHT22;12457;50.832;4.346;2023-04-06T04:29:55;8.60;1.00
24338;DHT22;12457;50.832;4.346;2023-04-06T04:32:34;8.60;1.00
24338;DHT22;12457;50.832;4.346;2023-04-06T04:34:59;8.70;1.00
24338;DHT22;12457;50.832;4.346;2023-04-06T04:37:25;8.70;1.00
24338;DHT22;12457;50.832;4.346;2023-04-06T04:39:51;8.70;1.00
24338;DHT22;12457;50.832;4.346;2023-04-06T04:42:16;8.70;1.00
24338;DHT22;12457;50.832;4.346;2023-04-06T04:44:42;8.80;1.00
24338;DHT22;12457;50.832;4.346;2023-04-06T04:47:08;8.80;1.00
24338;DHT22;12457;50.832;4.346;2023-04-06T04:49:33;8.80;1.00
24338;DHT22;12457;50.832;4.346;2023-04-06T04:51:59;8.80;1.00
24338;DHT22;12457;50.832;4.346;2023-04-06T04:54:25;8.80;1.00
24338;DHT22;12457;50.832;4.346;2023-04-06T04:56:50;8.90;1.00
24338;DHT22;12457;50.832;4.346;2023-04-06T04:59:16;8.90;1.00
24338;DHT22;12457;50.832;4.346;2023-04-06T05:01:42;8.90;1.00
24338;DHT22;12457;50.832;4.346;2023-04-06T05:04:08;9.00;1.00
24338;DHT22;12457;50.832;4.346;2023-04-06T05:06:34;9.10;1.00
24338;DHT22;12457;50.832;4.346;2023-04-06T05:08:59;9.10;1.00
24338;DHT22;12457;50.832;4.346;2023-04-06T05:11:25;9.00;1.00
24338;DHT22;12457;50.832;4.346;2023-04-06T05:13:51;9.00;1.00
24338;DHT22;12457;50.832;4.346;2023-04-06T05:16:17;8.80;1.00
24338;DHT22;12457;50.832;4.346;2023-04-06T05:18:43;8.80;1.00
24338;DHT22;12457;50.832;4.346;2023-04-06T05:21:10;8.80;1.00
24338;DHT22;12457;50.832;4.346;2023-04-06T05:23:36;8.70;1.00
24338;DHT22;12457;50.832;4.346;2023-04-06T05:26:02;8.80;1.00
24338;DHT22;12457;50.832;4.346;2023-04-06T05:28:28;8.80;1.00
24338;DHT22;12457;50.832;4.346;2023-04-06T05:30:53;8.90;1.00
24338;DHT22;12457;50.832;4.346;2023-04-06T05:33:19;8.90;1.00
24338;DHT22;12457;50.832;4.346;2023-04-06T05:35:45;8.90;1.00
24338;DHT22;12457;50.832;4.346;2023-04-06T05:38:11;8.90;1.00
24338;DHT22;12457;50.832;4.346;2023-04-06T05:40:37;8.90;1.00
24338;DHT22;12457;50.832;4.346;2023-04-06T05:43:07;8.90;1.00
24338;DHT22;12457;50.832;4.346;2023-04-06T05:45:33;8.90;1.00
24338;DHT22;12457;50.832;4.346;2023-04-06T05:48:00;9.00;1.00
24338;DHT22;12457;50.832;4.346;2023-04-06T05:50:26;9.00;1.00
24338;DHT22;12457;50.832;4.346;2023-04-06T05:52:52;9.00;1.00
24338;DHT22;12457;50.832;4.346;2023-04-06T05:55:18;9.00;1.00
24338;DHT22;12457;50.832;4.346;2023-04-06T05:57:43;9.10;1.00
24338;DHT22;12457;50.832;4.346;2023-04-06T06:00:09;9.10;1.00
24338;DHT22;12457;50.832;4.346;2023-04-06T06:02:44;9.20;1.00
24338;DHT22;12457;50.832;4.346;2023-04-06T06:05:10;9.30;1.00
24338;DHT22;12457;50.832;4.346;2023-04-06T06:07:36;9.30;1.00
24338;DHT22;12457;50.832;4.346;2023-04-06T06:10:02;9.30;1.00
24338;DHT22;12457;50.832;4.346;2023-04-06T06:12:28;9.30;1.00
24338;DHT22;12457;50.832;4.346;2023-04-06T06:14:54;9.30;1.00
24338;DHT22;12457;50.832;4.346;2023-04-06T06:17:19;9.30;1.00
24338;DHT22;12457;50.832;4.346;2023-04-06T06:19:48;9.30;1.00
24338;DHT22;12457;50.832;4.346;2023-04-06T06:22:14;9.30;1.00
24338;DHT22;12457;50.832;4.346;2023-04-06T06:24:40;9.20;1.00
24338;DHT22;12457;50.832;4.346;2023-04-06T06:27:05;9.10;1.70
24338;DHT22;12457;50.832;4.346;2023-04-06T06:29:33;9.00;12.50
24338;DHT22;12457;50.832;4.346;2023-04-06T06:31:58;9.00;22.10
24338;DHT22;12457;50.832;4.346;2023-04-06T06:34:24;8.90;31.40
24338;DHT22;12457;50.832;4.346;2023-04-06T06:36:50;8.90;42.30
24338;DHT22;12457;50.832;4.346;2023-04-06T06:39:16;8.90;55.20
24338;DHT22;12457;50.832;4.346;2023-04-06T06:41:42;8.90;62.10
24338;DHT22;12457;50.832;4.346;2023-04-06T06:44:08;8.80;68.80
24338;DHT22;12457;50.832;4.346;2023-04-06T06:46:33;8.70;73.60
24338;DHT22;12457;50.832;4.346;2023-04-06T06:49:02;8.80;76.50
24338;DHT22;12457;50.832;4.346;2023-04-06T06:51:28;8.90;79.70
24338;DHT22;12457;50.832;4.346;2023-04-06T06:53:54;8.80;86.20
24338;DHT22;12457;50.832;4.346;2023-04-06T06:56:20;8.70;89.20
24338;DHT22;12457;50.832;4.346;2023-04-06T06:58:46;8.70;92.50
24338;DHT22;12457;50.832;4.346;2023-04-06T07:01:11;8.60;94.70
24338;DHT22;12457;50.832;4.346;2023-04-06T07:03:37;8.70;96.50
24338;DHT22;12457;50.832;4.346;2023-04-06T07:06:03;8.70;96.40
24338;DHT22;12457;50.832;4.346;2023-04-06T07:08:28;8.70;98.20
24338;DHT22;12457;50.832;4.346;2023-04-06T07:10:54;8.80;99.90
24338;DHT22;12457;50.832;4.346;2023-04-06T07:13:23;8.70;99.90
24338;DHT22;12457;50.832;4.346;2023-04-06T07:15:49;8.70;99.90
24338;DHT22;12457;50.832;4.346;2023-04-06T07:18:16;8.80;99.90
24338;DHT22;12457;50.832;4.346;2023-04-06T07:20:42;8.80;99.90
24338;DHT22;12457;50.832;4.346;2023-04-06T07:23:08;8.90;99.90
24338;DHT22;12457;50.832;4.346;2023-04-06T07:25:33;8.90;99.90
24338;DHT22;12457;50.832;4.346;2023-04-06T07:28:02;9.00;99.90
24338;DHT22;12457;50.832;4.346;2023-04-06T07:30:29;8.90;99.90
24338;DHT22;12457;50.832;4.346;2023-04-06T07:32:55;9.00;99.90
24338;DHT22;12457;50.832;4.346;2023-04-06T07:35:25;9.10;99.90
24338;DHT22;12457;50.832;4.346;2023-04-06T07:37:52;9.10;99.90
24338;DHT22;12457;50.832;4.346;2023-04-06T07:40:18;9.00;99.90
24338;DHT22;12457;50.832;4.346;2023-04-06T07:42:45;9.00;99.90
24338;DHT22;12457;50.832;4.346;2023-04-06T07:45:12;9.10;99.90
24338;DHT22;12457;50.832;4.346;2023-04-06T07:47:38;8.90;99.90
24338;DHT22;12457;50.832;4.346;2023-04-06T07:50:04;8.90;99.90
24338;DHT22;12457;50.832;4.346;2023-04-06T07:52:30;8.80;99.90
24338;DHT22;12457;50.832;4.346;2023-04-06T07:54:58;8.80;99.90
24338;DHT22;12457;50.832;4.346;2023-04-06T07:57:24;8.90;99.90
24338;DHT22;12457;50.832;4.346;2023-04-06T07:59:49;8.90;99.90
24338;DHT22;12457;50.832;4.346;2023-04-06T08:02:15;8.90;99.90
24338;DHT22;12457;50.832;4.346;2023-04-06T08:04:41;9.00;99.90
24338;DHT22;12457;50.832;4.346;2023-04-06T08:07:07;8.90;99.90
24338;DHT22;12457;50.832;4.346;2023-04-06T08:09:32;8.90;99.90
24338;DHT22;12457;50.832;4.346;2023-04-06T08:11:58;8.90;99.90
24338;DHT22;12457;50.832;4.346;2023-04-06T08:14:24;8.80;99.90
24338;DHT22;12457;50.832;4.346;2023-04-06T08:16:50;8.80;99.90
24338;DHT22;12457;50.832;4.346;2023-04-06T08:19:16;8.90;99.90
24338;DHT22;12457;50.832;4.346;2023-04-06T08:21:46;8.80;99.90
24338;DHT22;12457;50.832;4.346;2023-04-06T08:24:13;8.80;99.90
24338;DHT22;12457;50.832;4.346;2023-04-06T08:26:39;8.80;99.90
24338;DHT22;12457;50.832;4.346;2023-04-06T08:29:06;8.90;99.90
24338;DHT22;12457;50.832;4.346;2023-04-06T08:31:35;9.00;99.90
24338;DHT22;12457;50.832;4.346;2023-04-06T08:34:03;8.90;99.90
24338;DHT22;12457;50.832;4.346;2023-04-06T08:36:28;8.80;99.90
24338;DHT22;12457;50.832;4.346;2023-04-06T08:38:54;8.80;99.90
24338;DHT22;12457;50.832;4.346;2023-04-06T08:41:20;8.80;99.90
24338;DHT22;12457;50.832;4.346;2023-04-06T08:43:54;8.90;99.90
24338;DHT22;12457;50.832;4.346;2023-04-06T08:46:21;8.90;99.90
24338;DHT22;12457;50.832;4.346;2023-04-06T08:48:56;8.90;99.90
24338;DHT22;12457;50.832;4.346;2023-04-06T08:51:26;8.90;99.90
24338;DHT22;12457;50.832;4.346;2023-04-06T08:53:56;8.90;99.90
24338;DHT22;12457;50.832;4.346;2023-04-06T08:56:26;8.80;99.90
24338;DHT22;12457;50.832;4.346;2023-04-06T08:58:53;8.80;99.90
24338;DHT22;12457;50.832;4.346;2023-04-06T09:01:27;8.90;99.90
24338;DHT22;12457;50.832;4.346;2023-04-06T09:03:57;9.10;99.90
24338;DHT22;12457;50.832;4.346;2023-04-06T09:06:24;9.20;99.90
24338;DHT22;12457;50.832;4.346;2023-04-06T09:08:52;9.30;99.90
24338;DHT22;12457;50.832;4.346;2023-04-06T09:11:17;9.50;99.90
24338;DHT22;12457;50.832;4.346;2023-04-06T09:13:52;9.60;99.90
24338;DHT22;12457;50.832;4.346;2023-04-06T09:16:19;9.60;99.90
24338;DHT22;12457;50.832;4.346;2023-04-06T09:18:46;9.60;99.90
24338;DHT22;12457;50.832;4.346;2023-04-06T09:21:12;9.60;99.90
24338;DHT22;12457;50.832;4.346;2023-04-06T09:23:39;9.70;99.90
24338;DHT22;12457;50.832;4.346;2023-04-06T09:26:18;9.90;99.90
24338;DHT22;12457;50.832;4.346;2023-04-06T09:31:16;9.60;99.90
24338;DHT22;12457;50.832;4.346;2023-04-06T09:33:44;9.50;99.90
24338;DHT22;12457;50.832;4.346;2023-04-06T09:36:10;9.60;99.90
24338;DHT22;12457;50.832;4.346;2023-04-06T09:38:51;9.60;99.90
24338;DHT22;12457;50.832;4.346;2023-04-06T09:41:23;9.60;99.90
24338;DHT22;12457;50.832;4.346;2023-04-06T09:46:31;9.60;99.90
24338;DHT22;12457;50.832;4.346;2023-04-06T09:49:02;9.70;99.90
24338;DHT22;12457;50.832;4.346;2023-04-06T09:51:40;9.60;99.90
24338;DHT22;12457;50.832;4.346;2023-04-06T09:54:06;9.50;99.90
24338;DHT22;12457;50.832;4.346;2023-04-06T10:00:02;9.50;99.90
24338;DHT22;12457;50.832;4.346;2023-04-06T10:02:41;9.40;99.90
24338;DHT22;12457;50.832;4.346;2023-04-06T10:05:27;9.50;99.90
24338;DHT22;12457;50.832;4.346;2023-04-06T10:07:59;9.50;99.90
24338;DHT22;12457;50.832;4.346;2023-04-06T10:10:27;9.60;99.90
24338;DHT22;12457;50.832;4.346;2023-04-06T10:12:54;9.50;99.90
24338;DHT22;12457;50.832;4.346;2023-04-06T10:15:21;9.60;99.90
24338;DHT22;12457;50.832;4.346;2023-04-06T10:17:47;9.70;99.90
24338;DHT22;12457;50.832;4.346;2023-04-06T10:22:45;9.80;99.90
24338;DHT22;12457;50.832;4.346;2023-04-06T10:25:26;9.90;99.90
24338;DHT22;12457;50.832;4.346;2023-04-06T10:28:05;9.90;99.90
24338;DHT22;12457;50.832;4.346;2023-04-06T10:30:33;9.90;99.90
24338;DHT22;12457;50.832;4.346;2023-04-06T10:32:59;9.90;99.90
24338;DHT22;12457;50.832;4.346;2023-04-06T10:35:36;9.90;99.90
24338;DHT22;12457;50.832;4.346;2023-04-06T10:38:04;9.90;99.90
24338;DHT22;12457;50.832;4.346;2023-04-06T10:40:30;10.00;99.90
24338;DHT22;12457;50.832;4.346;2023-04-06T10:43:17;10.00;99.90
24338;DHT22;12457;50.832;4.346;2023-04-06T10:45:44;10.10;99.90
24338;DHT22;12457;50.832;4.346;2023-04-06T10:48:15;10.20;99.90
24338;DHT22;12457;50.832;4.346;2023-04-06T10:50:48;10.10;99.90
24338;DHT22;12457;50.832;4.346;2023-04-06T10:53:27;10.10;99.90
24338;DHT22;12457;50.832;4.346;2023-04-06T10:56:02;9.90;99.90
24338;DHT22;12457;50.832;4.346;2023-04-06T10:58:29;9.90;99.90
24338;DHT22;12457;50.832;4.346;2023-04-06T11:00:56;9.90;99.90
24338;DHT22;12457;50.832;4.346;2023-04-06T11:03:22;10.00;99.90
24338;DHT22;12457;50.832;4.346;2023-04-06T11:05:49;10.10;99.90
24338;DHT22;12457;50.832;4.346;2023-04-06T11:08:35;10.20;99.90
24338;DHT22;12457;50.832;4.346;2023-04-06T11:11:11;10.30;99.90
24338;DHT22;12457;50.832;4.346;2023-04-06T11:13:42;10.30;99.90
24338;DHT22;12457;50.832;4.346;2023-04-06T11:16:16;10.50;99.90
24338;DHT22;12457;50.832;4.346;2023-04-06T11:21:15;10.80;99.90
24338;DHT22;12457;50.832;4.346;2023-04-06T11:23:41;10.90;99.90
24338;DHT22;12457;50.832;4.346;2023-04-06T11:26:14;11.00;99.90
24338;DHT22;12457;50.832;4.346;2023-04-06T11:28:41;11.00;99.90
24338;DHT22;12457;50.832;4.346;2023-04-06T11:31:11;11.10;99.90
24338;DHT22;12457;50.832;4.346;2023-04-06T11:33:38;10.90;99.90
24338;DHT22;12457;50.832;4.346;2023-04-06T11:36:27;10.70;99.90
24338;DHT22;12457;50.832;4.346;2023-04-06T11:38:53;10.70;99.90
24338;DHT22;12457;50.832;4.346;2023-04-06T11:41:18;10.60;99.90
24338;DHT22;12457;50.832;4.346;2023-04-06T11:43:48;10.60;99.90
24338;DHT22;12457;50.832;4.346;2023-04-06T11:46:17;10.70;99.90
24338;DHT22;12457;50.832;4.346;2023-04-06T11:48:48;10.80;99.90
24338;DHT22;12457;50.832;4.346;2023-04-06T11:51:22;10.80;99.90
24338;DHT22;12457;50.832;4.346;2023-04-06T11:53:49;10.70;99.90
24338;DHT22;12457;50.832;4.346;2023-04-06T11:56:29;10.70;99.90
24338;DHT22;12457;50.832;4.346;2023-04-06T11:58:56;10.50;99.90
24338;DHT22;12457;50.832;4.346;2023-04-06T12:01:23;10.60;99.90
24338;DHT22;12457;50.832;4.346;2023-04-06T12:03:49;10.70;99.90
24338;DHT22;12457;50.832;4.346;2023-04-06T12:06:16;10.70;99.90
24338;DHT22;12457;50.832;4.346;2023-04-06T12:08:42;10.80;99.90
24338;DHT22;12457;50.832;4.346;2023-04-06T12:11:08;10.70;99.90
24338;DHT22;12457;50.832;4.346;2023-04-06T12:13:34;10.70;99.90
24338;DHT22;12457;50.832;4.346;2023-04-06T12:15:59;10.80;99.90
24338;DHT22;12457;50.832;4.346;2023-04-06T12:18:25;10.90;99.90
24338;DHT22;12457;50.832;4.346;2023-04-06T12:20:51;10.80;99.90
24338;DHT22;12457;50.832;4.346;2023-04-06T12:23:18;10.80;99.90
24338;DHT22;12457;50.832;4.346;2023-04-06T12:25:44;10.90;99.90
24338;DHT22;12457;50.832;4.346;2023-04-06T12:28:09;10.80;99.90
24338;DHT22;12457;50.832;4.346;2023-04-06T12:30:35;10.80;99.90
24338;DHT22;12457;50.832;4.346;2023-04-06T12:33:01;10.80;99.90
24338;DHT22;12457;50.832;4.346;2023-04-06T12:35:27;10.80;99.90
24338;DHT22;12457;50.832;4.346;2023-04-06T12:37:53;10.80;99.90
24338;DHT22;12457;50.832;4.346;2023-04-06T12:40:20;10.80;99.90
24338;DHT22;12457;50.832;4.346;2023-04-06T12:42:45;10.70;99.90
24338;DHT22;12457;50.832;4.346;2023-04-06T12:45:12;10.70;99.90
24338;DHT22;12457;50.832;4.346;2023-04-06T12:47:38;10.60;99.90
24338;DHT22;12457;50.832;4.346;2023-04-06T12:50:07;10.40;99.90
24338;DHT22;12457;50.832;4.346;2023-04-06T12:52:33;10.30;99.90
24338;DHT22;12457;50.832;4.346;2023-04-06T12:55:02;10.20;99.90
24338;DHT22;12457;50.832;4.346;2023-04-06T12:57:28;10.30;99.90
24338;DHT22;12457;50.832;4.346;2023-04-06T12:59:54;10.20;99.90
24338;DHT22;12457;50.832;4.346;2023-04-06T13:02:20;10.20;99.90
24338;DHT22;12457;50.832;4.346;2023-04-06T13:04:47;10.00;99.90
24338;DHT22;12457;50.832;4.346;2023-04-06T13:07:13;10.00;99.90
24338;DHT22;12457;50.832;4.346;2023-04-06T13:09:39;10.00;99.90
24338;DHT22;12457;50.832;4.346;2023-04-06T13:12:05;10.00;99.90
24338;DHT22;12457;50.832;4.346;2023-04-06T13:14:31;10.00;99.90
24338;DHT22;12457;50.832;4.346;2023-04-06T13:16:57;10.00;99.90
24338;DHT22;12457;50.832;4.346;2023-04-06T13:19:23;10.10;99.90
24338;DHT22;12457;50.832;4.346;2023-04-06T13:21:48;10.20;99.90
24338;DHT22;12457;50.832;4.346;2023-04-06T13:24:14;10.10;99.90
24338;DHT22;12457;50.832;4.346;2023-04-06T13:26:40;10.10;99.90
24338;DHT22;12457;50.832;4.346;2023-04-06T13:29:06;10.10;99.90
24338;DHT22;12457;50.832;4.346;2023-04-06T13:31:32;10.00;99.90
24338;DHT22;12457;50.832;4.346;2023-04-06T13:33:57;9.90;99.90
24338;DHT22;12457;50.832;4.346;2023-04-06T13:36:25;9.90;99.90
24338;DHT22;12457;50.832;4.346;2023-04-06T13:38:52;9.90;99.90
24338;DHT22;12457;50.832;4.346;2023-04-06T13:41:19;10.00;99.90
24338;DHT22;12457;50.832;4.346;2023-04-06T13:43:46;10.00;99.90
24338;DHT22;12457;50.832;4.346;2023-04-06T13:46:12;10.10;99.90
24338;DHT22;12457;50.832;4.346;2023-04-06T13:48:37;10.00;99.90
24338;DHT22;12457;50.832;4.346;2023-04-06T13:51:11;10.10;99.90
24338;DHT22;12457;50.832;4.346;2023-04-06T13:53:37;10.10;99.90
24338;DHT22;12457;50.832;4.346;2023-04-06T13:56:03;10.10;99.90
24338;DHT22;12457;50.832;4.346;2023-04-06T13:58:29;10.10;99.90
24338;DHT22;12457;50.832;4.346;2023-04-06T14:01:05;10.10;99.90
24338;DHT22;12457;50.832;4.346;2023-04-06T14:03:32;10.00;99.90
24338;DHT22;12457;50.832;4.346;2023-04-06T14:05:58;10.10;99.90
24338;DHT22;12457;50.832;4.346;2023-04-06T14:08:25;10.10;99.90
24338;DHT22;12457;50.832;4.346;2023-04-06T14:10:51;10.20;99.90
24338;DHT22;12457;50.832;4.346;2023-04-06T14:13:17;10.20;99.90
24338;DHT22;12457;50.832;4.346;2023-04-06T14:15:44;10.30;99.90
24338;DHT22;12457;50.832;4.346;2023-04-06T14:18:10;10.40;99.90
24338;DHT22;12457;50.832;4.346;2023-04-06T14:20:37;10.50;99.90
24338;DHT22;12457;50.832;4.346;2023-04-06T14:23:03;10.40;99.90
24338;DHT22;12457;50.832;4.346;2023-04-06T14:25:28;10.30;99.90
24338;DHT22;12457;50.832;4.346;2023-04-06T14:27:57;10.30;99.90
24338;DHT22;12457;50.832;4.346;2023-04-06T14:30:22;10.20;99.90
24338;DHT22;12457;50.832;4.346;2023-04-06T14:32:48;10.20;99.90
24338;DHT22;12457;50.832;4.346;2023-04-06T14:35:14;10.20;99.90
24338;DHT22;12457;50.832;4.346;2023-04-06T14:37:49;10.20;99.90
24338;DHT22;12457;50.832;4.346;2023-04-06T14:40:15;10.30;99.90
24338;DHT22;12457;50.832;4.346;2023-04-06T14:42:41;10.30;99.90
24338;DHT22;12457;50.832;4.346;2023-04-06T14:45:07;10.30;99.90
24338;DHT22;12457;50.832;4.346;2023-04-06T14:47:32;10.40;99.90
24338;DHT22;12457;50.832;4.346;2023-04-06T14:49:58;10.50;99.90
24338;DHT22;12457;50.832;4.346;2023-04-06T14:52:24;10.70;99.90
24338;DHT22;12457;50.832;4.346;2023-04-06T14:54:49;10.80;99.90
24338;DHT22;12457;50.832;4.346;2023-04-06T14:57:15;10.70;99.90
24338;DHT22;12457;50.832;4.346;2023-04-06T14:59:41;10.70;99.90
24338;DHT22;12457;50.832;4.346;2023-04-06T15:02:07;10.70;99.90
24338;DHT22;12457;50.832;4.346;2023-04-06T15:04:34;10.70;99.90
24338;DHT22;12457;50.832;4.346;2023-04-06T15:07:00;10.70;99.90
24338;DHT22;12457;50.832;4.346;2023-04-06T15:09:26;10.90;99.90
24338;DHT22;12457;50.832;4.346;2023-04-06T15:11:52;10.90;99.90
24338;DHT22;12457;50.832;4.346;2023-04-06T15:14:18;10.90;99.90
24338;DHT22;12457;50.832;4.346;2023-04-06T15:16:44;11.00;99.90
24338;DHT22;12457;50.832;4.346;2023-04-06T15:19:09;11.20;99.90
24338;DHT22;12457;50.832;4.346;2023-04-06T15:21:36;11.20;99.90
24338;DHT22;12457;50.832;4.346;2023-04-06T15:24:39;11.20;99.90
24338;DHT22;12457;50.832;4.346;2023-04-06T15:27:05;11.40;99.90
24338;DHT22;12457;50.832;4.346;2023-04-06T15:29:31;11.50;99.90
24338;DHT22;12457;50.832;4.346;2023-04-06T15:31:57;11.50;99.90
24338;DHT22;12457;50.832;4.346;2023-04-06T15:34:23;11.50;99.90
24338;DHT22;12457;50.832;4.346;2023-04-06T15:36:49;11.50;99.90
24338;DHT22;12457;50.832;4.346;2023-04-06T15:39:16;11.40;99.90
24338;DHT22;12457;50.832;4.346;2023-04-06T15:41:43;11.30;99.90
24338;DHT22;12457;50.832;4.346;2023-04-06T15:44:09;11.20;99.90
24338;DHT22;12457;50.832;4.346;2023-04-06T15:46:35;11.20;99.90
24338;DHT22;12457;50.832;4.346;2023-04-06T15:49:02;11.20;99.90
24338;DHT22;12457;50.832;4.346;2023-04-06T15:51:29;11.40;99.90
24338;DHT22;12457;50.832;4.346;2023-04-06T15:54:01;11.30;99.90
24338;DHT22;12457;50.832;4.346;2023-04-06T15:56:29;11.40;99.90
24338;DHT22;12457;50.832;4.346;2023-04-06T15:58:57;11.30;99.90
24338;DHT22;12457;50.832;4.346;2023-04-06T16:01:24;11.40;99.90
24338;DHT22;12457;50.832;4.346;2023-04-06T16:03:50;11.30;99.90